createdAt,value
2023-02-24T00:00:50.524Z,77.95
2023-02-24T00:01:50.522Z,74.31
2023-02-24T00:02:50.553Z,77.36
2023-02-24T00:03:50.593Z,77.01
2023-02-24T00:04:50.555Z,79.50
2023-02-24T00:05:50.562Z,79.16
2023-02-24T00:06:50.634Z,77.37
2023-02-24T00:07:50.598Z,81.29
2023-02-24T00:08:50.608Z,77.55
2023-02-24T00:09:50.646Z,78.25
2023-02-24T00:10:50.640Z,77.20
2023-02-24T00:11:50.630Z,77.23
2023-02-24T00:12:50.671Z,76.69
2023-02-24T00:13:50.640Z,79.76
2023-02-24T00:14:50.693Z,77.79
2023-02-24T00:15:50.703Z,78.57
2023-02-24T00:16:50.808Z,75.81
2023-02-24T00:17:50.688Z,77.96
2023-02-24T00:18:50.698Z,75.28
2023-02-24T00:19:50.697Z,77.71
2023-02-24T00:20:50.725Z,76.63
2023-02-24T00:21:50.735Z,75.35
2023-02-24T00:22:50.735Z,77.09
2023-02-24T00:23:50.773Z,78.43
2023-02-24T00:24:50.786Z,76.71
2023-02-24T00:25:50.793Z,77.47
2023-02-24T00:26:50.749Z,76.78
2023-02-24T00:27:50.762Z,79.10
2023-02-24T00:28:50.783Z,78.14
2023-02-24T00:29:50.786Z,79.69
2023-02-24T00:30:50.821Z,76.20
2023-02-24T00:31:51.088Z,77.03
2023-02-24T00:32:50.945Z,76.94
2023-02-24T00:33:50.741Z,76.26
2023-02-24T00:34:50.736Z,77.42
2023-02-24T00:35:50.763Z,75.24
2023-02-24T00:36:50.754Z,75.67
2023-02-24T00:37:50.765Z,77.33
2023-02-24T00:38:50.746Z,77.94
2023-02-24T00:39:50.739Z,77.01
2023-02-24T00:40:50.767Z,76.86
2023-02-24T00:41:50.737Z,74.01
2023-02-24T00:42:50.720Z,75.28
2023-02-24T00:43:50.729Z,78.91
2023-02-24T00:44:50.786Z,74.62
2023-02-24T00:45:50.739Z,72.24
2023-02-24T00:46:50.734Z,75.90
2023-02-24T00:47:50.751Z,77.04
2023-02-24T00:48:50.718Z,74.84
2023-02-24T00:49:50.718Z,76.94
2023-02-24T00:50:50.767Z,76.63
2023-02-24T00:51:50.730Z,80.09
2023-02-24T00:52:50.764Z,75.96
2023-02-24T00:53:50.802Z,75.73
2023-02-24T00:54:50.761Z,77.23
2023-02-24T00:55:50.753Z,74.07
2023-02-24T00:56:50.746Z,75.32
2023-02-24T00:57:50.797Z,78.70
2023-02-24T00:58:50.770Z,77.54
2023-02-24T00:59:50.787Z,75.44
2023-02-24T01:00:50.759Z,75.60
2023-02-24T01:01:50.853Z,74.80
2023-02-24T01:02:50.741Z,75.96
2023-02-24T01:03:50.788Z,72.03
2023-02-24T01:04:50.772Z,74.58
2023-02-24T01:05:50.741Z,75.33
2023-02-24T01:06:50.747Z,75.59
2023-02-24T01:07:50.736Z,76.50
2023-02-24T01:08:50.740Z,71.12
2023-02-24T01:09:50.749Z,73.82
2023-02-24T01:10:50.750Z,75.62
2023-02-24T01:11:50.758Z,75.79
2023-02-24T01:12:50.790Z,76.30
2023-02-24T01:13:50.736Z,71.63
2023-02-24T01:14:50.738Z,74.37
2023-02-24T01:15:50.770Z,72.18
2023-02-24T01:16:50.764Z,70.76
2023-02-24T01:17:50.716Z,70.91
2023-02-24T01:18:50.745Z,73.26
2023-02-24T01:19:50.769Z,72.98
2023-02-24T01:20:50.745Z,70.62
2023-02-24T01:21:50.773Z,72.05
2023-02-24T01:22:50.759Z,71.63
2023-02-24T01:23:50.783Z,71.89
2023-02-24T01:24:50.736Z,70.67
2023-02-24T01:25:50.738Z,71.20
2023-02-24T01:26:50.784Z,71.38
2023-02-24T01:27:50.789Z,72.11
2023-02-24T01:28:50.764Z,73.60
2023-02-24T01:29:50.779Z,71.60
2023-02-24T01:30:50.763Z,71.48
2023-02-24T01:31:50.999Z,72.75
2023-02-24T01:32:51.055Z,73.38
2023-02-24T01:33:50.748Z,70.85
2023-02-24T01:34:50.768Z,70.15
2023-02-24T01:35:50.760Z,71.64
2023-02-24T01:36:50.820Z,70.78
2023-02-24T01:37:50.750Z,72.00
2023-02-24T01:38:50.785Z,70.12
2023-02-24T01:39:50.792Z,71.56
2023-02-24T01:40:50.788Z,70.55
2023-02-24T01:41:50.796Z,71.04
2023-02-24T01:42:50.831Z,69.30
2023-02-24T01:43:50.792Z,71.27
2023-02-24T01:44:50.771Z,71.63
2023-02-24T01:45:50.782Z,72.87
2023-02-24T01:46:50.804Z,70.27
2023-02-24T01:47:50.823Z,70.34
2023-02-24T01:48:50.803Z,71.63
2023-02-24T01:49:50.808Z,72.61
2023-02-24T01:50:50.772Z,71.57
2023-02-24T01:51:50.829Z,69.60
2023-02-24T01:52:50.786Z,70.74
2023-02-24T01:53:50.802Z,68.79
2023-02-24T01:54:50.802Z,69.65
2023-02-24T01:55:50.849Z,69.57
2023-02-24T01:56:50.829Z,71.46
2023-02-24T01:57:50.842Z,71.49
2023-02-24T01:58:50.825Z,69.48
2023-02-24T01:59:50.832Z,66.90
2023-02-24T02:00:50.872Z,69.96
2023-02-24T02:01:50.912Z,67.59
2023-02-24T02:02:51.024Z,69.63
2023-02-24T02:03:50.861Z,69.37
2023-02-24T02:04:50.889Z,71.40
2023-02-24T02:05:50.898Z,67.88
2023-02-24T02:06:50.888Z,68.94
2023-02-24T02:07:50.903Z,70.84
2023-02-24T02:08:50.908Z,70.15
2023-02-24T02:09:50.907Z,66.91
2023-02-24T02:10:50.877Z,67.47
2023-02-24T02:11:50.911Z,69.41
2023-02-24T02:12:50.941Z,70.04
2023-02-24T02:13:50.981Z,71.30
2023-02-24T02:14:50.943Z,71.70
2023-02-24T02:15:50.962Z,69.58
2023-02-24T02:16:50.950Z,68.22
2023-02-24T02:17:50.972Z,67.71
2023-02-24T02:18:50.971Z,70.78
2023-02-24T02:19:50.972Z,67.58
2023-02-24T02:20:51.030Z,69.42
2023-02-24T02:21:51.032Z,68.14
2023-02-24T02:22:51.012Z,68.85
2023-02-24T02:23:51.048Z,69.91
2023-02-24T02:24:51.056Z,67.05
2023-02-24T02:25:51.056Z,68.42
2023-02-24T02:26:51.090Z,68.80
2023-02-24T02:27:51.113Z,66.93
2023-02-24T02:28:51.124Z,70.36
2023-02-24T02:29:51.130Z,69.21
2023-02-24T02:30:51.148Z,69.05
2023-02-24T02:31:51.257Z,68.81
2023-02-24T02:32:51.643Z,69.88
2023-02-24T02:33:51.477Z,69.67
2023-02-24T02:34:51.181Z,70.87
2023-02-24T02:35:51.238Z,68.06
2023-02-24T02:36:51.239Z,67.93
2023-02-24T02:37:51.247Z,66.86
2023-02-24T02:38:51.257Z,71.20
2023-02-24T02:39:51.255Z,69.01
2023-02-24T02:40:51.267Z,67.91
2023-02-24T02:41:51.270Z,68.26
2023-02-24T02:42:51.257Z,70.39
2023-02-24T02:43:51.285Z,69.23
2023-02-24T02:44:51.261Z,68.61
2023-02-24T02:45:51.302Z,67.29
2023-02-24T02:46:51.266Z,67.83
2023-02-24T02:47:51.305Z,68.93
2023-02-24T02:48:51.325Z,68.55
2023-02-24T02:49:51.320Z,67.15
2023-02-24T02:50:51.363Z,66.60
2023-02-24T02:51:51.369Z,70.76
2023-02-24T02:52:51.381Z,72.58
2023-02-24T02:53:51.387Z,70.71
2023-02-24T02:54:51.411Z,68.56
2023-02-24T02:55:51.391Z,68.63
2023-02-24T02:56:51.428Z,70.28
2023-02-24T02:57:51.456Z,69.32
2023-02-24T02:58:51.426Z,69.78
2023-02-24T02:59:51.459Z,69.98
2023-02-24T03:00:51.501Z,68.35
2023-02-24T03:01:51.480Z,65.58
2023-02-24T03:02:51.837Z,69.43
2023-02-24T03:03:51.544Z,66.76
2023-02-24T03:04:51.626Z,69.16
2023-02-24T03:05:51.580Z,68.11
2023-02-24T03:06:51.570Z,67.55
2023-02-24T03:07:51.598Z,69.12
2023-02-24T03:08:51.651Z,67.46
2023-02-24T03:09:51.650Z,70.19
2023-02-24T03:10:51.627Z,68.76
2023-02-24T03:11:51.651Z,69.57
2023-02-24T03:12:51.674Z,66.71
2023-02-24T03:13:51.648Z,71.04
2023-02-24T03:14:51.683Z,69.81
2023-02-24T03:15:51.694Z,67.59
2023-02-24T03:16:51.805Z,66.09
2023-02-24T03:17:51.748Z,68.30
2023-02-24T03:18:51.752Z,65.54
2023-02-24T03:19:51.762Z,69.58
2023-02-24T03:20:51.797Z,67.24
2023-02-24T03:21:51.805Z,68.64
2023-02-24T03:22:51.812Z,66.90
2023-02-24T03:23:51.810Z,69.18
2023-02-24T03:24:51.814Z,67.04
2023-02-24T03:25:51.827Z,68.62
2023-02-24T03:26:51.874Z,69.63
2023-02-24T03:27:51.873Z,67.73
2023-02-24T03:28:51.920Z,66.71
2023-02-24T03:29:51.941Z,66.43
2023-02-24T03:30:51.960Z,66.68
2023-02-24T03:31:52.053Z,66.05
2023-02-24T03:32:52.089Z,66.59
2023-02-24T03:33:52.002Z,67.77
2023-02-24T03:34:52.003Z,69.57
2023-02-24T03:35:52.048Z,67.60
2023-02-24T03:36:52.040Z,65.16
2023-02-24T03:37:52.134Z,65.68
2023-02-24T03:38:52.105Z,64.70
2023-02-24T03:39:52.107Z,66.37
2023-02-24T03:40:52.128Z,68.99
2023-02-24T03:41:52.150Z,68.84
2023-02-24T03:42:52.174Z,65.92
2023-02-24T03:43:52.195Z,66.71
2023-02-24T03:44:52.238Z,68.00
2023-02-24T03:45:52.242Z,66.35
2023-02-24T03:46:52.259Z,68.73
2023-02-24T03:47:52.287Z,69.44
2023-02-24T03:48:52.303Z,65.86
2023-02-24T03:49:52.350Z,67.74
2023-02-24T03:50:52.397Z,67.43
2023-02-24T03:51:52.381Z,70.76
2023-02-24T03:52:52.463Z,69.77
2023-02-24T03:53:52.422Z,67.98
2023-02-24T03:54:52.436Z,64.20
2023-02-24T03:55:52.484Z,67.27
2023-02-24T03:56:52.485Z,66.84
2023-02-24T03:57:52.496Z,67.88
2023-02-24T03:58:52.544Z,67.33
2023-02-24T03:59:52.544Z,64.32
2023-02-24T04:00:52.591Z,68.18
2023-02-24T04:01:52.617Z,67.38
2023-02-24T04:02:52.647Z,68.66
2023-02-24T04:03:52.685Z,67.96
2023-02-24T04:04:52.807Z,66.74
2023-02-24T04:05:52.700Z,67.38
2023-02-24T04:06:55.035Z,64.81
2023-02-24T04:07:52.732Z,67.40
2023-02-24T04:08:52.709Z,67.08
2023-02-24T04:09:52.684Z,68.07
2023-02-24T04:10:52.839Z,67.27
2023-02-24T04:11:52.697Z,66.28
2023-02-24T04:12:52.713Z,68.49
2023-02-24T04:13:52.713Z,67.18
2023-02-24T04:14:52.671Z,66.69
2023-02-24T04:15:52.693Z,67.86
2023-02-24T04:16:52.641Z,66.56
2023-02-24T04:17:52.677Z,67.32
2023-02-24T04:18:52.648Z,67.69
2023-02-24T04:19:52.649Z,66.87
2023-02-24T04:20:52.610Z,67.36
2023-02-24T04:21:52.602Z,66.54
2023-02-24T04:22:52.627Z,66.25
2023-02-24T04:23:52.618Z,67.05
2023-02-24T04:24:52.661Z,66.03
2023-02-24T04:25:52.573Z,69.73
2023-02-24T04:26:52.619Z,72.18
2023-02-24T04:27:52.595Z,67.42
2023-02-24T04:28:52.580Z,67.99
2023-02-24T04:29:52.578Z,69.80
2023-02-24T04:30:52.692Z,67.36
2023-02-24T04:31:52.731Z,68.78
2023-02-24T04:32:52.615Z,69.19
2023-02-24T04:33:52.533Z,68.92
2023-02-24T04:34:52.543Z,68.21
2023-02-24T04:35:52.553Z,70.00
2023-02-24T04:36:52.526Z,70.25
2023-02-24T04:37:52.539Z,66.80
2023-02-24T04:38:52.521Z,67.65
2023-02-24T04:39:52.521Z,67.85
2023-02-24T04:40:52.487Z,70.93
2023-02-24T04:41:52.468Z,70.59
2023-02-24T04:42:52.474Z,68.58
2023-02-24T04:43:52.475Z,72.03
2023-02-24T04:44:52.481Z,71.55
2023-02-24T04:45:52.463Z,68.72
2023-02-24T04:46:52.463Z,69.97
2023-02-24T04:47:52.480Z,65.83
2023-02-24T04:48:52.435Z,70.28
2023-02-24T04:49:52.412Z,68.42
2023-02-24T04:50:52.446Z,67.65
2023-02-24T04:51:52.430Z,70.71
2023-02-24T04:52:52.433Z,68.43
2023-02-24T04:53:52.415Z,69.82
2023-02-24T04:54:52.437Z,71.85
2023-02-24T04:55:52.373Z,67.22
2023-02-24T04:56:52.397Z,70.68
2023-02-24T04:57:52.396Z,67.97
2023-02-24T04:58:52.374Z,69.57
2023-02-24T04:59:52.352Z,69.34
2023-02-24T05:00:52.387Z,70.82
2023-02-24T05:01:52.378Z,69.78
2023-02-24T05:02:52.360Z,69.02
2023-02-24T05:03:52.376Z,68.19
2023-02-24T05:04:52.375Z,70.46
2023-02-24T05:05:52.328Z,68.27
2023-02-24T05:06:52.331Z,69.38
2023-02-24T05:07:52.370Z,68.78
2023-02-24T05:08:52.318Z,69.25
2023-02-24T05:09:52.310Z,72.09
2023-02-24T05:10:52.304Z,68.81
2023-02-24T05:11:52.288Z,70.02
2023-02-24T05:12:52.372Z,64.98
2023-02-24T05:13:52.372Z,67.55
2023-02-24T05:14:52.384Z,72.59
2023-02-24T05:15:52.464Z,66.12
2023-02-24T05:16:52.462Z,67.91
2023-02-24T05:17:52.505Z,67.99
2023-02-24T05:18:52.521Z,68.76
2023-02-24T05:19:52.583Z,69.67
2023-02-24T05:20:52.601Z,65.85
2023-02-24T05:21:52.631Z,68.53
2023-02-24T05:22:52.693Z,68.98
2023-02-24T05:23:52.689Z,68.72
2023-02-24T05:24:52.707Z,70.32
2023-02-24T05:25:52.768Z,69.15
2023-02-24T05:26:52.816Z,69.22
2023-02-24T05:27:52.797Z,71.12
2023-02-24T05:28:52.892Z,69.66
2023-02-24T05:29:55.373Z,68.98
2023-02-24T05:30:53.010Z,73.44
2023-02-24T05:31:53.139Z,73.70
2023-02-24T05:32:53.085Z,71.91
2023-02-24T05:33:53.150Z,72.54
2023-02-24T05:34:53.163Z,68.34
2023-02-24T05:35:53.180Z,68.63
2023-02-24T05:36:53.224Z,69.38
2023-02-24T05:37:53.267Z,73.22
2023-02-24T05:38:55.561Z,71.49
2023-02-24T05:39:53.270Z,72.79
2023-02-24T05:40:53.270Z,70.94
2023-02-24T05:41:53.310Z,71.45
2023-02-24T05:42:53.269Z,70.67
2023-02-24T05:43:53.273Z,76.25
2023-02-24T05:44:53.258Z,74.24
2023-02-24T05:45:53.280Z,72.67
2023-02-24T05:46:53.347Z,71.44
2023-02-24T05:47:53.257Z,72.06
2023-02-24T05:48:53.256Z,74.79
2023-02-24T05:49:53.241Z,72.26
2023-02-24T05:50:53.201Z,72.65
2023-02-24T05:51:53.238Z,73.29
2023-02-24T05:52:53.224Z,72.12
2023-02-24T05:53:53.197Z,74.41
2023-02-24T05:54:53.216Z,70.56
2023-02-24T05:55:53.176Z,73.91
2023-02-24T05:56:53.184Z,70.96
2023-02-24T05:57:53.188Z,75.36
2023-02-24T05:58:54.774Z,71.41
2023-02-24T05:59:53.152Z,75.62
2023-02-24T06:01:00.183Z,74.16
2023-02-24T09:33:56.518Z,94.51
2023-02-24T09:46:56.578Z,85.69
2023-02-24T09:47:56.491Z,85.81
2023-02-24T09:48:56.558Z,87.83
2023-02-24T09:49:57.037Z,86.15
2023-02-24T09:51:56.627Z,89.80
2023-02-24T09:53:02.949Z,90.56
2023-02-24T09:54:56.662Z,89.44
2023-02-24T09:55:56.680Z,88.25
2023-02-24T09:56:56.621Z,85.08
2023-02-24T09:57:56.628Z,89.35
2023-02-24T09:58:56.582Z,91.47
2023-02-24T09:59:56.601Z,88.45
2023-02-24T10:00:56.655Z,92.13
2023-02-24T10:01:56.683Z,89.50
2023-02-24T10:02:56.630Z,86.12
2023-02-24T10:03:57.606Z,91.26
2023-02-24T10:04:56.685Z,92.61
2023-02-24T10:05:56.579Z,90.83
2023-02-24T10:06:56.598Z,89.14
2023-02-24T10:07:56.589Z,86.94
2023-02-24T10:08:56.590Z,91.13
2023-02-24T10:09:56.675Z,90.60
2023-02-24T10:10:56.662Z,86.12
2023-02-24T10:11:56.743Z,85.48
2023-02-24T10:12:56.701Z,83.29
2023-02-24T10:14:03.386Z,86.10
2023-02-24T10:15:57.182Z,84.72
2023-02-24T10:16:56.762Z,84.50
2023-02-24T10:17:56.698Z,86.04
2023-02-24T10:18:56.698Z,81.96
2023-02-24T10:19:56.730Z,85.75
2023-02-24T10:20:56.700Z,90.57
2023-02-24T10:21:56.680Z,94.61
2023-02-24T10:22:56.656Z,88.05
2023-02-24T10:23:56.870Z,86.43
2023-02-24T10:24:56.719Z,83.95
2023-02-24T10:25:56.676Z,82.81
2023-02-24T10:27:07.385Z,84.23
2023-02-24T10:28:56.646Z,84.42
2023-02-24T10:29:56.729Z,83.69
2023-02-24T10:30:56.770Z,83.29
2023-02-24T10:31:56.859Z,82.28
2023-02-24T10:32:56.601Z,77.56
2023-02-24T10:33:56.631Z,81.43
2023-02-24T10:34:56.592Z,76.66
2023-02-24T10:35:56.570Z,81.16
2023-02-24T10:36:56.607Z,76.89
2023-02-24T10:37:56.611Z,76.30
2023-02-24T10:38:56.551Z,71.56
2023-02-24T10:39:57.076Z,77.18
2023-02-24T10:40:56.658Z,78.92
2023-02-24T10:41:56.738Z,80.04
2023-02-24T10:42:56.749Z,71.87
2023-02-24T10:43:56.817Z,66.93
2023-02-24T10:45:01.674Z,62.90
2023-02-24T10:46:56.823Z,64.69
2023-02-24T10:48:56.781Z,94.41
2023-02-24T11:13:57.622Z,150.47
2023-02-24T15:32:06.619Z,35.54
2023-02-24T15:33:06.526Z,34.08
2023-02-24T15:34:06.553Z,34.69
2023-02-24T15:35:06.637Z,30.82
2023-02-24T15:36:06.673Z,28.01
2023-02-24T15:37:08.736Z,30.63
2023-02-24T15:38:06.726Z,34.52
2023-02-24T15:39:06.758Z,34.21
2023-02-24T15:40:06.702Z,33.94
2023-02-24T15:41:06.707Z,34.00
2023-02-24T15:42:06.721Z,36.87
2023-02-24T15:43:06.674Z,34.98
2023-02-24T15:44:06.697Z,32.55
2023-02-24T15:45:06.734Z,35.42
2023-02-24T15:46:06.716Z,38.08
2023-02-24T15:47:06.729Z,36.34
2023-02-24T15:48:06.690Z,36.20
2023-02-24T15:49:06.674Z,29.89
2023-02-24T15:50:06.672Z,28.06
2023-02-24T15:51:06.664Z,28.09
2023-02-24T15:52:06.660Z,27.60
2023-02-24T15:53:06.615Z,27.87
2023-02-24T15:54:06.593Z,29.00
2023-02-24T15:55:06.590Z,30.57
2023-02-24T15:56:06.616Z,27.36
2023-02-24T15:57:06.609Z,25.00
2023-02-24T15:58:06.578Z,26.99
2023-02-24T15:59:06.590Z,28.49
2023-02-24T16:00:06.577Z,32.85
2023-02-24T16:01:06.589Z,34.17
2023-02-24T16:02:06.594Z,35.21
2023-02-24T16:03:06.558Z,32.50
2023-02-24T16:04:06.645Z,34.61
2023-02-24T16:05:06.572Z,35.26
2023-02-24T16:06:06.611Z,34.60
2023-02-24T16:07:06.537Z,37.52
2023-02-24T16:08:06.567Z,32.96
2023-02-24T16:09:06.526Z,34.58
2023-02-24T16:10:06.523Z,35.90
2023-02-24T16:11:06.555Z,34.36
2023-02-24T16:12:06.505Z,27.26
2023-02-24T16:13:06.516Z,29.19
2023-02-24T16:14:06.606Z,30.77
2023-02-24T16:15:06.650Z,30.71
2023-02-24T16:16:06.791Z,33.00
2023-02-24T16:17:06.786Z,30.44
2023-02-24T16:18:06.816Z,32.14
2023-02-24T16:19:06.875Z,35.13
2023-02-24T16:20:06.943Z,32.96
2023-02-24T16:21:07.065Z,29.96
2023-02-24T16:22:07.062Z,30.13
2023-02-24T16:23:07.110Z,29.86
2023-02-24T16:24:07.153Z,30.75
2023-02-24T16:25:07.208Z,31.44
2023-02-24T16:26:07.302Z,30.47
2023-02-24T16:27:07.322Z,26.26
2023-02-24T16:28:07.400Z,25.62
2023-02-24T16:29:07.465Z,27.83
2023-02-24T16:30:07.452Z,29.63
2023-02-24T16:31:07.615Z,27.34
2023-02-24T16:32:07.742Z,29.25
2023-02-24T16:33:07.689Z,26.64
2023-02-24T16:34:07.587Z,25.00
2023-02-24T16:35:07.623Z,28.22
2023-02-24T16:36:07.666Z,25.00
2023-02-24T16:37:07.743Z,28.33
2023-02-24T16:38:07.777Z,25.00
2023-02-24T16:39:07.817Z,27.84
2023-02-24T16:40:07.870Z,25.14
2023-02-24T16:41:07.932Z,29.68
2023-02-24T16:42:07.974Z,32.88
2023-02-24T16:43:07.984Z,32.34
2023-02-24T16:44:08.034Z,34.45
2023-02-24T16:45:08.073Z,34.73
2023-02-24T16:46:08.135Z,38.76
2023-02-24T16:47:08.106Z,34.75
2023-02-24T16:48:08.155Z,31.57
2023-02-24T16:49:08.204Z,36.53
2023-02-24T16:50:08.251Z,30.95
2023-02-24T16:51:08.263Z,31.27
2023-02-24T16:52:08.321Z,30.99
2023-02-24T16:53:08.311Z,28.95
2023-02-24T16:54:08.334Z,31.94
2023-02-24T16:55:08.372Z,33.25
2023-02-24T16:56:08.392Z,33.00
2023-02-24T16:57:08.391Z,33.49
2023-02-24T16:58:08.422Z,30.41
2023-02-24T16:59:08.461Z,31.60
2023-02-24T17:00:08.504Z,34.31
2023-02-24T17:01:08.591Z,34.26
2023-02-24T17:02:08.553Z,37.82
2023-02-24T17:03:08.630Z,39.32
2023-02-24T17:04:08.721Z,41.07
2023-02-24T17:05:08.685Z,39.90
2023-02-24T17:06:08.725Z,40.79
2023-02-24T17:07:08.759Z,35.39
2023-02-24T17:08:08.799Z,37.39
2023-02-24T17:09:08.819Z,39.66
2023-02-24T17:10:08.845Z,41.03
2023-02-24T17:11:08.856Z,44.25
2023-02-24T17:12:08.895Z,46.32
2023-02-24T17:13:08.939Z,45.92
2023-02-24T17:14:08.933Z,40.93
2023-02-24T17:15:08.957Z,40.97
2023-02-24T17:16:09.003Z,41.71
2023-02-24T17:17:09.083Z,47.35
2023-02-24T17:18:09.044Z,48.69
2023-02-24T17:19:09.062Z,49.74
2023-02-24T17:20:09.073Z,47.03
2023-02-24T17:21:09.095Z,43.27
2023-02-24T17:22:09.108Z,44.83
2023-02-24T17:23:09.186Z,45.65
2023-02-24T17:24:09.215Z,48.43
2023-02-24T17:26:09.221Z,51.33
2023-02-24T17:27:09.300Z,54.14
2023-02-24T17:28:09.298Z,55.20
2023-02-24T17:29:09.327Z,53.05
2023-02-24T17:30:09.352Z,50.23
2023-02-24T17:31:09.566Z,51.79
2023-02-24T17:32:09.538Z,54.97
2023-02-24T17:33:09.455Z,56.71
2023-02-24T17:34:09.518Z,55.27
2023-02-24T17:35:09.557Z,57.22
2023-02-24T17:36:09.583Z,58.74
2023-02-24T17:37:09.583Z,58.08
2023-02-24T17:38:09.622Z,55.24
2023-02-24T17:39:09.674Z,55.00
2023-02-24T17:40:09.713Z,55.51
2023-02-24T17:41:09.699Z,53.79
2023-02-24T17:42:09.721Z,53.31
2023-02-24T17:43:09.775Z,56.55
2023-02-24T17:44:09.764Z,60.42
2023-02-24T17:45:09.779Z,59.56
2023-02-24T17:46:09.868Z,59.81
2023-02-24T17:47:09.786Z,62.16
2023-02-24T17:48:09.856Z,61.60
2023-02-24T17:49:09.890Z,62.13
2023-02-24T17:50:09.944Z,63.54
2023-02-24T17:51:09.974Z,59.40
2023-02-24T17:52:09.987Z,61.93
2023-02-24T17:53:10.006Z,59.48
2023-02-24T17:54:09.999Z,59.31
2023-02-24T17:55:10.090Z,59.24
2023-02-24T17:56:10.054Z,62.24
2023-02-24T21:18:16.477Z,104.38
2023-02-24T21:19:16.485Z,103.71
2023-02-24T21:20:16.551Z,107.30
2023-02-24T21:21:16.578Z,106.59
2023-02-24T21:22:16.594Z,107.89
2023-02-24T21:23:16.615Z,106.67
2023-02-24T21:24:16.645Z,104.88
2023-02-24T21:25:16.664Z,107.03
2023-02-24T21:26:16.706Z,105.48
2023-02-24T21:27:16.702Z,105.37
2023-02-24T21:28:16.710Z,104.82
2023-02-24T21:29:16.802Z,105.75
2023-02-24T21:30:16.776Z,103.53
2023-02-24T21:31:17.094Z,106.65
2023-02-24T21:32:16.946Z,105.02
2023-02-24T21:33:16.853Z,105.22
2023-02-24T21:34:16.934Z,104.39
2023-02-24T21:35:16.912Z,102.38
2023-02-24T21:36:16.955Z,102.40
2023-02-24T21:37:16.972Z,101.61
2023-02-24T21:38:16.981Z,102.42
2023-02-24T21:39:17.008Z,103.30
2023-02-24T21:40:17.070Z,102.15
2023-02-24T21:41:17.057Z,102.20
2023-02-24T21:42:17.114Z,103.16
2023-02-24T21:43:17.134Z,102.16
2023-02-24T21:44:17.173Z,103.71
2023-02-24T21:45:17.182Z,101.24
2023-02-24T21:46:17.230Z,103.58
2023-02-24T21:47:17.222Z,104.39
2023-02-24T21:48:17.251Z,102.95
2023-02-24T21:49:17.284Z,100.48
2023-02-24T21:50:17.267Z,103.00
2023-02-24T21:51:17.349Z,100.43
2023-02-24T21:52:17.367Z,101.06
2023-02-24T21:53:17.367Z,100.52
2023-02-24T21:54:17.363Z,103.46
2023-02-24T21:55:17.390Z,102.21
2023-02-24T21:56:17.434Z,102.81
2023-02-24T21:57:17.480Z,104.08
2023-02-24T21:58:17.471Z,105.69
2023-02-24T21:59:17.481Z,105.39
2023-02-24T22:00:17.550Z,104.73
2023-02-24T22:01:17.562Z,106.30
2023-02-24T22:02:17.584Z,106.74
2023-02-24T22:03:17.678Z,105.21
2023-02-24T22:04:17.642Z,105.75
2023-02-24T22:05:17.685Z,105.50
2023-02-24T22:06:17.693Z,106.43
2023-02-24T22:07:17.768Z,103.15
2023-02-24T22:08:17.714Z,103.79
2023-02-24T22:09:17.783Z,105.15
2023-02-24T22:10:17.787Z,104.12
2023-02-24T22:11:17.786Z,107.29
2023-02-24T22:12:17.807Z,106.48
2023-02-24T22:13:17.830Z,105.80
2023-02-24T22:14:17.899Z,105.37
2023-02-24T22:15:17.866Z,106.22
2023-02-24T22:16:17.884Z,104.79
2023-02-24T22:17:17.885Z,103.75
2023-02-24T22:18:20.190Z,107.77
2023-02-24T22:19:17.902Z,108.74
2023-02-24T22:20:17.899Z,107.42
2023-02-24T22:21:17.877Z,106.58
2023-02-24T22:22:17.889Z,107.23
2023-02-24T22:23:17.882Z,106.36
2023-02-24T22:24:17.851Z,107.36
2023-02-24T22:25:17.822Z,105.30
2023-02-24T22:26:17.847Z,104.99
2023-02-24T22:27:17.841Z,105.54
2023-02-24T22:28:17.866Z,107.42
2023-02-24T22:29:17.840Z,106.30
2023-02-24T22:30:17.814Z,108.10
2023-02-24T22:31:17.918Z,106.59
2023-02-24T22:32:17.984Z,109.48
2023-02-24T22:33:17.773Z,108.54
2023-02-24T22:34:17.813Z,108.30
2023-02-24T22:35:17.765Z,109.08
2023-02-24T22:36:17.779Z,106.96
2023-02-24T22:37:17.778Z,108.70
2023-02-24T22:38:17.788Z,108.06
2023-02-24T22:39:17.758Z,107.13
2023-02-24T22:40:19.276Z,108.26
2023-02-24T22:41:17.755Z,108.39
2023-02-24T22:42:17.730Z,108.69
2023-02-24T22:43:17.756Z,108.83
2023-02-24T22:44:17.727Z,110.86
2023-02-24T22:45:17.713Z,111.34
2023-02-24T22:46:17.756Z,111.47
2023-02-24T22:47:17.738Z,111.56
2023-02-24T22:48:17.731Z,110.17
2023-02-24T22:49:17.716Z,110.71
2023-02-24T22:50:17.691Z,109.39
2023-02-24T22:51:17.681Z,109.64
2023-02-24T22:52:17.679Z,111.07
2023-02-24T22:53:17.677Z,109.22
2023-02-24T22:54:17.678Z,111.15
2023-02-24T22:55:17.654Z,109.52
2023-02-24T22:56:17.660Z,111.77
2023-02-24T22:57:17.639Z,109.45
2023-02-24T22:58:17.638Z,108.17
2023-02-24T22:59:17.655Z,105.46
2023-02-24T23:00:17.625Z,107.22
2023-02-24T23:01:17.742Z,105.21
2023-02-24T23:02:17.620Z,102.82
2023-02-24T23:03:17.603Z,103.72
2023-02-24T23:04:17.595Z,102.74
2023-02-24T23:05:17.611Z,103.88
2023-02-24T23:06:17.614Z,101.81
2023-02-24T23:07:17.573Z,99.64
2023-02-24T23:08:17.578Z,102.89
2023-02-24T23:09:17.574Z,103.69
2023-02-24T23:10:17.580Z,103.31
2023-02-24T23:11:17.558Z,104.39
2023-02-24T23:12:17.543Z,104.53
2023-02-24T23:13:17.531Z,102.84
2023-02-24T23:14:17.521Z,103.38
2023-02-24T23:15:17.544Z,103.66
2023-02-24T23:16:17.599Z,101.32
2023-02-24T23:17:17.514Z,102.07
2023-02-24T23:18:17.501Z,101.72
2023-02-24T23:19:17.539Z,104.56
2023-02-24T23:20:17.501Z,104.57
2023-02-24T23:21:17.451Z,105.11
2023-02-24T23:22:17.469Z,102.53
2023-02-24T23:23:17.469Z,103.49
2023-02-24T23:24:17.463Z,104.28
2023-02-24T23:25:17.442Z,105.51
2023-02-24T23:26:17.436Z,105.50
2023-02-24T23:27:17.432Z,103.40
2023-02-24T23:28:17.440Z,105.28
2023-02-24T23:29:17.405Z,104.63
2023-02-24T23:30:17.435Z,104.23
2023-02-24T23:31:17.566Z,104.71
2023-02-24T23:32:17.589Z,105.58
2023-02-24T23:33:17.378Z,106.95
2023-02-24T23:34:17.400Z,107.03
2023-02-24T23:35:17.375Z,107.17
2023-02-24T23:36:17.380Z,106.15
2023-02-24T23:37:17.417Z,104.57
2023-02-24T23:38:17.366Z,101.65
2023-02-24T23:39:17.348Z,102.44
2023-02-24T23:40:17.345Z,104.90
2023-02-24T23:41:17.351Z,105.84
2023-02-24T23:42:17.347Z,107.06
2023-02-24T23:43:17.351Z,108.27
2023-02-24T23:44:17.344Z,108.87
2023-02-24T23:45:17.441Z,108.29
2023-02-24T23:46:17.484Z,105.46
2023-02-24T23:47:17.499Z,106.63
2023-02-24T23:48:17.509Z,105.63
2023-02-24T23:49:17.561Z,107.77
2023-02-24T23:50:17.526Z,107.51
2023-02-24T23:51:17.561Z,106.47
2023-02-24T23:52:17.566Z,106.71
2023-02-24T23:53:17.577Z,107.96
2023-02-24T23:54:17.579Z,108.36
2023-02-24T23:55:17.587Z,109.97
2023-02-24T23:56:17.625Z,110.40
2023-02-24T23:57:17.628Z,108.94
2023-02-24T23:58:17.642Z,108.54
2023-02-24T23:59:17.656Z,107.13
